Time;durP1;ratioP1;P1;durP2;ratioP2;P2;SDS_P1;SDS_P2;PMS_P1;PMS_P2;Temp;Humidity;BMP_temperature;BMP_pressure;BME280_temperature;BME280_humidity;BME280_pressure;Samples;Min_cycle;Max_cycle;Signal;HPM_P1;HPM_P2
2023/03/07 06:06:48;;;;;;;3.20;0.73;;;;;;;16.46;51.66;99752.50;6239937;22;20063;31
2023/03/07 06:15:22;;;;;;;2.88;0.80;;;;;;;16.44;51.63;99747.38;6265521;22;20016;-80
2023/03/07 06:17:51;;;;;;;2.00;0.70;;;;;;;16.46;51.62;99747.31;6276205;22;20020;-81
2023/03/07 06:20:19;;;;;;;1.27;0.68;;;;;;;16.44;52.00;99743.91;6303210;22;20003;-80
2023/03/07 06:22:46;;;;;;;2.72;0.70;;;;;;;16.47;51.84;99743.00;6307253;22;20018;-80
2023/03/07 06:25:15;;;;;;;1.45;0.65;;;;;;;16.45;51.76;99743.00;6309376;22;20030;-81
2023/03/07 06:27:42;;;;;;;1.73;0.80;;;;;;;16.47;51.72;99748.19;6302141;22;20007;-79
2023/03/07 06:30:12;;;;;;;7.38;1.77;;;;;;;16.47;51.59;99753.38;6294313;22;20133;-78
2023/03/07 06:32:37;;;;;;;5.82;2.42;;;;;;;16.47;51.80;99754.22;6265753;23;20028;-80
2023/03/07 06:35:03;;;;;;;6.78;2.40;;;;;;;16.47;51.73;99749.03;6229451;23;20023;-80
2023/03/07 06:37:28;;;;;;;10.60;2.83;;;;;;;16.48;51.89;99750.72;6201621;23;20012;-80
2023/03/07 06:39:54;;;;;;;8.25;2.70;;;;;;;16.47;51.98;99748.19;6202268;23;20015;-80
2023/03/07 06:42:20;;;;;;;6.40;2.20;;;;;;;16.48;51.82;99749.88;6252970;23;20012;-80
2023/03/07 06:44:45;;;;;;;6.03;2.35;;;;;;;16.48;51.66;99755.91;6217296;23;20101;-80
2023/03/07 06:47:51;;;;;;;7.75;2.33;;;;;;;16.47;51.73;99749.03;6202689;23;20012;-79
2023/03/07 10:35:21;;;;;;;1.40;0.65;;;;;;;16.77;49.90;99827.19;6216974;22;20097;-80
2023/03/07 10:37:49;;;;;;;1.08;0.60;;;;;;;16.77;50.02;99821.97;6286877;22;20023;-80
2023/03/07 10:40:20;;;;;;;0.60;0.40;;;;;;;16.77;49.99;99833.22;6288324;22;20007;-80
2023/03/07 10:42:46;;;;;;;1.02;0.50;;;;;;;16.76;49.98;99835.84;6314807;22;20015;-80
2023/03/07 10:45:13;;;;;;;1.25;0.60;;;;;;;16.76;49.62;99843.63;6302508;22;19987;-80
2023/03/07 10:47:39;;;;;;;1.55;0.50;;;;;;;16.75;49.48;99837.59;6295416;22;20321;-80
2023/03/07 10:50:36;;;;;;;1.30;0.60;;;;;;;16.74;49.54;99820.28;6288109;22;20017;-80
2023/03/07 10:53:07;;;;;;;1.23;0.60;;;;;;;16.73;49.53;99803.00;6311234;22;20003;-80
2023/03/07 10:55:39;;;;;;;0.90;0.50;;;;;;;16.75;49.67;99810.75;6286220;22;20030;-80
2023/03/07 10:58:10;;;;;;;1.48;0.70;;;;;;;16.75;49.56;99819.41;6311108;22;20013;-80
2023/03/07 11:00:35;;;;;;;1.13;0.50;;;;;;;16.78;49.65;99813.28;6285694;22;20007;-80
2023/03/07 11:03:01;;;;;;;1.38;0.65;;;;;;;16.78;49.63;99815.88;6284527;22;20021;-80
2023/03/07 11:05:32;;;;;;;0.65;0.50;;;;;;;16.78;49.33;99816.72;6258238;22;20012;-80
2023/03/07 11:07:58;;;;;;;1.05;0.50;;;;;;;16.78;49.43;99802.88;6311781;22;20014;-79
2023/03/07 11:10:33;;;;;;;0.85;0.52;;;;;;;16.79;49.41;99810.66;6259515;22;20014;-80
2023/03/07 11:13:07;;;;;;;0.70;0.40;;;;;;;16.80;49.69;99820.19;6286446;22;20039;-80
2023/03/07 11:15:32;;;;;;;1.10;0.50;;;;;;;16.80;49.26;99812.38;6286123;22;20007;-80
2023/03/07 11:17:57;;;;;;;1.00;0.60;;;;;;;16.80;49.38;99808.94;6259531;22;20107;-80
2023/03/07 11:20:28;;;;;;;1.30;0.77;;;;;;;16.81;49.33;99806.31;6310675;22;20034;-80
2023/03/07 11:23:22;;;;;;;1.15;0.45;;;;;;;16.82;49.22;99809.75;6325629;22;20007;-81
2023/03/07 11:25:49;;;;;;;0.52;0.40;;;;;;;16.82;49.38;99809.75;6334379;22;20021;-80
2023/03/07 11:28:25;;;;;;;0.98;0.50;;;;;;;16.82;49.38;99805.41;6334277;22;20037;-80
2023/03/07 11:30:56;;;;;;;0.73;0.50;;;;;;;16.82;49.24;99813.22;6298394;22;20040;-80
2023/03/07 11:33:34;;;;;;;0.90;0.47;;;;;;;16.84;49.43;99815.78;6287535;22;20049;-80
2023/03/07 11:36:15;;;;;;;0.73;0.50;;;;;;;16.85;49.43;99814.88;6318903;22;20241;-80
2023/03/07 11:38:59;;;;;;;0.50;0.43;;;;;;;16.86;49.15;99808.81;6334089;22;20015;-80
2023/03/07 11:41:27;;;;;;;;;;;;;;;16.86;49.22;99808.81;6308265;22;20027;-81
2023/03/07 11:44:14;;;;;;;0.43;0.40;;;;;;;16.87;49.19;99810.50;6307854;22;19891;-80
2023/03/07 11:47:11;;;;;;;0.95;0.47;;;;;;;16.87;49.31;99805.31;6298612;22;20014;-80
2023/03/07 11:49:56;;;;;;;0.57;0.40;;;;;;;16.88;49.21;99800.97;6287530;22;20090;-80
2023/03/07 11:52:25;;;;;;;0.52;0.40;;;;;;;16.88;49.37;99800.97;6286480;22;20083;-80
2023/03/07 11:54:59;;;;;;;0.43;0.40;;;;;;;16.89;49.40;99797.47;6285801;22;20034;-81
2023/03/07 11:57:48;;;;;;;0.60;0.47;;;;;;;16.89;49.30;99797.47;6285922;22;20022;-80
2023/03/07 12:00:39;;;;;;;0.82;0.50;;;;;;;16.89;49.12;99797.47;6285518;22;20011;-80
2023/03/07 12:03:32;;;;;;;1.50;0.50;;;;;;;16.88;49.22;99801.84;6285218;22;20007;-80
2023/03/07 12:06:19;;;;;;;0.82;0.50;;;;;;;16.89;49.43;99800.09;6302661;22;20006;-80
2023/03/07 12:09:09;;;;;;;0.77;0.40;;;;;;;16.88;49.26;99807.03;6285941;22;20034;-80
2023/03/07 12:12:09;;;;;;;0.80;0.40;;;;;;;16.88;49.36;99803.59;6285662;22;20007;-80
2023/03/07 12:14:46;;;;;;;0.68;0.40;;;;;;;16.88;49.18;99798.38;6285055;22;20003;-80
2023/03/07 12:17:43;;;;;;;0.68;0.40;;;;;;;16.88;49.27;99808.78;6285800;22;20007;-80
2023/03/07 12:20:12;;;;;;;0.57;0.40;;;;;;;16.88;49.14;99798.38;6312064;22;20007;-80
2023/03/07 12:22:52;;;;;;;0.57;0.40;;;;;;;16.88;49.21;99800.97;6287622;22;20011;-80
2023/03/07 12:25:29;;;;;;;0.73;0.40;;;;;;;16.88;49.34;99801.84;6284936;22;20007;-80
2023/03/07 12:28:20;;;;;;;0.80;0.57;;;;;;;16.88;49.17;99806.19;6285340;22;20007;-80
2023/03/07 12:30:52;;;;;;;1.38;0.50;;;;;;;16.89;49.20;99820.88;6312750;22;20074;-80
2023/03/07 12:33:26;;;;;;;0.75;0.40;;;;;;;16.88;49.13;99827.81;6284485;22;20003;-80
2023/03/07 12:36:05;;;;;;;1.45;0.50;;;;;;;16.87;49.33;99826.09;6283194;22;20079;-80
2023/03/07 12:38:42;;;;;;;1.13;0.47;;;;;;;16.89;49.11;99829.50;6285484;22;20007;-81
2023/03/07 12:41:40;;;;;;;0.85;0.40;;;;;;;16.88;49.13;99832.16;6284642;22;20443;-80
2023/03/07 12:44:28;;;;;;;0.80;0.45;;;;;;;16.88;48.74;99845.16;6273293;22;20073;-80
2023/03/07 12:47:14;;;;;;;0.60;0.30;;;;;;;16.86;49.18;99830.44;6311085;22;20027;-80
2023/03/07 12:49:52;;;;;;;0.70;0.40;;;;;;;16.88;49.08;99825.22;6285747;22;20010;-80
2023/03/07 12:52:45;;;;;;;0.60;0.30;;;;;;;16.91;48.72;99845.06;6286314;22;20003;-81
2023/03/07 12:55:46;;;;;;;1.00;0.38;;;;;;;16.89;48.94;99850.31;6313448;22;20515;-81
2023/03/07 12:58:18;;;;;;;0.80;0.50;;;;;;;16.91;48.83;99860.66;6273610;22;20008;-81
2023/03/07 13:00:53;;;;;;;0.75;0.40;;;;;;;16.89;48.96;99854.66;6287003;22;20007;-80
2023/03/07 13:03:41;;;;;;;0.80;0.40;;;;;;;16.89;49.01;99846.84;6310707;22;20067;-81
2023/03/07 13:06:14;;;;;;;0.47;0.30;;;;;;;16.90;48.62;99846.81;6283783;22;20396;-81
2023/03/07 13:08:44;;;;;;;0.82;0.30;;;;;;;16.90;48.81;99852.03;6314944;22;20408;-81
2023/03/07 13:11:18;;;;;;;0.35;0.25;;;;;;;16.91;48.88;99847.69;6285850;22;20011;-81
2023/03/07 13:13:43;;;;;;;1.08;0.30;;;;;;;16.91;48.82;99843.31;6311560;22;19995;-81
2023/03/07 13:16:45;;;;;;;0.57;0.30;;;;;;;16.93;48.92;99838.09;6285297;22;19999;-81
2023/03/07 13:19:35;;;;;;;1.00;0.40;;;;;;;16.93;48.79;99836.34;6313752;22;20013;-81
2023/03/07 13:22:22;;;;;;;0.77;0.40;;;;;;;16.94;48.73;99835.47;6313767;22;19999;-81
2023/03/07 13:24:49;;;;;;;1.13;0.40;;;;;;;16.94;48.66;99827.69;6240715;22;20384;-81
2023/03/07 13:27:21;;;;;;;1.05;0.47;;;;;;;16.97;48.82;99834.56;6286392;22;20015;-80
2023/03/07 13:30:11;;;;;;;0.63;0.40;;;;;;;16.96;48.73;99830.22;6285415;22;20086;-81
2023/03/07 13:32:55;;;;;;;0.75;0.40;;;;;;;16.98;48.71;99837.09;6313340;22;20056;-81
2023/03/07 13:35:45;;;;;;;0.50;0.38;;;;;;;16.97;48.80;99827.59;6313285;22;20007;-81
2023/03/07 13:38:16;;;;;;;0.55;0.30;;;;;;;16.98;48.72;99824.09;6272379;22;20015;-81
2023/03/07 13:40:47;;;;;;;0.50;0.30;;;;;;;16.98;48.89;99826.69;6285191;22;20014;-81
2023/03/07 13:43:22;;;;;;;0.95;0.40;;;;;;;16.99;48.64;99828.41;6285334;22;20321;-81
2023/03/07 13:45:49;;;;;;;0.75;0.40;;;;;;;17.00;48.73;99831.88;6285501;22;20011;-81
2023/03/07 13:48:27;;;;;;;0.57;0.40;;;;;;;16.99;48.62;99836.22;6312888;22;19999;-81
2023/03/07 13:50:55;;;;;;;0.82;0.40;;;;;;;16.99;48.64;99836.22;6287909;22;20007;-81
2023/03/07 13:53:26;;;;;;;0.60;0.30;;;;;;;17.00;48.50;99834.47;6288226;22;20007;-80
2023/03/07 13:56:23;;;;;;;0.57;0.30;;;;;;;17.00;48.69;99831.88;6293892;22;20008;-81
2023/03/07 13:58:52;;;;;;;0.60;0.40;;;;;;;17.00;48.58;99837.06;6329525;22;20006;-81
2023/03/07 14:01:20;;;;;;;0.90;0.50;;;;;;;17.00;48.71;99839.66;6306312;22;20343;-81
2023/03/07 14:03:57;;;;;;;1.15;0.40;;;;;;;17.01;49.10;99847.44;6331134;22;20412;-81
2023/03/07 14:06:32;;;;;;;0.60;0.40;;;;;;;17.03;48.65;99850.00;6318158;22;20025;-81
2023/03/07 14:08:59;;;;;;;1.10;0.40;;;;;;;17.02;48.72;99848.28;6302705;22;20014;-81
2023/03/07 14:11:31;;;;;;;0.93;0.40;;;;;;;17.02;48.79;99845.69;6307802;22;20017;-81
2023/03/07 14:14:00;;;;;;;0.70;0.30;;;;;;;17.02;48.54;99849.13;6305755;22;20003;-81
2023/03/07 14:16:39;;;;;;;0.85;0.40;;;;;;;17.03;48.70;99842.22;6304737;22;20011;-81
2023/03/07 14:19:29;;;;;;;0.88;0.30;;;;;;;17.03;48.59;99847.41;6297170;22;19999;-82
2023/03/07 14:22:08;;;;;;;0.57;0.35;;;;;;;17.04;48.50;99854.31;6292470;22;20011;-81
2023/03/07 14:24:53;;;;;;;0.98;0.47;;;;;;;17.04;48.48;99849.94;6287666;22;19999;-81
2023/03/07 14:27:18;;;;;;;0.75;0.40;;;;;;;17.04;48.73;99849.09;6314217;22;20007;-81
2023/03/07 14:29:51;;;;;;;0.50;0.40;;;;;;;17.02;48.40;99843.94;6286377;22;20011;-81
2023/03/07 14:32:29;;;;;;;1.17;0.40;;;;;;;17.04;48.44;99847.34;6314533;22;20326;-81
2023/03/07 14:34:55;;;;;;;0.40;0.30;;;;;;;17.04;48.73;99849.94;6311307;22;20011;-80
2023/03/07 14:37:31;;;;;;;0.70;0.32;;;;;;;17.04;48.58;99855.16;6287097;22;20035;-81
2023/03/07 14:40:03;;;;;;;0.35;0.30;;;;;;;17.05;48.42;99841.28;6314607;22;20003;-81
2023/03/07 14:42:55;;;;;;;1.25;0.40;;;;;;;17.03;48.59;99845.66;6313282;22;20427;-81
2023/03/07 14:45:36;;;;;;;1.05;0.40;;;;;;;17.04;48.52;99857.75;6302188;22;20022;-81
2023/03/07 14:48:17;;;;;;;0.60;0.40;;;;;;;17.04;48.46;99856.91;6287096;22;20481;-81
2023/03/07 14:50:43;;;;;;;0.90;0.45;;;;;;;17.05;48.10;99856.88;6313295;22;19999;-81
2023/03/07 14:53:24;;;;;;;0.70;0.35;;;;;;;17.04;48.33;99860.34;6286638;22;20386;-81
2023/03/07 14:55:52;;;;;;;0.65;0.38;;;;;;;17.05;48.37;99858.63;6285079;22;20458;-81
2023/03/07 14:58:22;;;;;;;1.58;0.30;;;;;;;17.05;48.51;99846.47;6311341;22;20026;-81
2023/03/07 15:00:59;;;;;;;1.08;0.40;;;;;;;17.05;48.10;99848.22;6285257;22;20050;-81
2023/03/07 15:03:25;;;;;;;0.70;0.38;;;;;;;17.05;48.25;99846.47;6287410;22;20014;-81
2023/03/07 15:05:54;;;;;;;0.65;0.35;;;;;;;17.05;48.40;99854.28;6285918;22;20015;-81
2023/03/07 15:36:45;;;;;;;0.63;0.40;;;;;;;17.06;48.18;99883.72;6220499;23;20021;-81
2023/03/07 15:39:33;;;;;;;0.70;0.40;;;;;;;17.06;48.19;99875.91;6220858;23;20023;-81
2023/03/07 15:42:20;;;;;;;0.82;0.40;;;;;;;17.06;48.00;99881.97;6220509;23;20012;-81
2023/03/07 15:44:53;;;;;;;1.02;0.40;;;;;;;17.07;47.96;99885.41;6194294;23;20007;-81
2023/03/07 15:47:18;;;;;;;1.52;0.50;;;;;;;17.06;47.78;99881.97;6194528;23;20028;-81
2023/03/07 15:49:51;;;;;;;0.75;0.40;;;;;;;17.07;48.01;99880.22;6170815;23;20020;-81
2023/03/07 16:13:04;;;;;;;0.73;0.40;;;;;;;17.00;48.02;99905.50;6265679;22;20027;-82
2023/03/07 16:15:30;;;;;;;1.20;0.40;;;;;;;16.99;48.02;99903.78;6286681;22;20015;-81
2023/03/07 16:17:56;;;;;;;1.27;0.40;;;;;;;16.99;47.97;99903.78;6260921;22;19999;-81
2023/03/07 16:20:25;;;;;;;1.05;0.40;;;;;;;16.98;47.91;99902.06;6287508;22;20080;-82
2023/03/07 16:22:51;;;;;;;1.10;0.20;;;;;;;16.98;47.84;99912.47;6286879;22;20018;-82
2023/03/07 16:25:19;;;;;;;1.17;0.40;;;;;;;16.98;47.96;99915.06;6286983;22;20011;-81
2023/03/07 16:27:50;;;;;;;0.50;0.40;;;;;;;16.97;47.93;99918.56;6286946;22;20034;-81
2023/03/07 16:30:19;;;;;;;1.15;0.45;;;;;;;16.97;47.95;99918.56;6286977;22;20010;-82
2023/03/07 16:32:45;;;;;;;1.10;0.40;;;;;;;16.96;48.15;99914.28;6299463;22;20067;-81
2023/03/07 16:35:19;;;;;;;0.60;0.40;;;;;;;16.96;47.84;99921.19;6309222;22;19999;-82
2023/03/07 16:37:45;;;;;;;0.75;0.40;;;;;;;16.95;47.80;99922.09;6309744;22;19995;-82
2023/03/07 16:40:13;;;;;;;0.82;0.40;;;;;;;16.95;47.83;99914.28;6307364;22;20007;-82
2023/03/07 16:42:44;;;;;;;1.25;0.50;;;;;;;16.93;47.90;99924.72;6308393;22;20020;-81
2023/03/07 16:45:16;;;;;;;0.93;0.40;;;;;;;16.92;47.65;99923.00;6334139;22;20010;-81
2023/03/07 16:47:41;;;;;;;0.93;0.38;;;;;;;16.93;47.95;99931.66;6297465;22;20011;-81
2023/03/07 16:50:18;;;;;;;1.35;0.40;;;;;;;16.91;47.93;99926.47;6320581;22;20546;-81
2023/03/07 16:52:44;;;;;;;4.90;0.50;;;;;;;16.91;48.14;99933.44;6291625;22;20011;-80
2023/03/07 16:55:14;;;;;;;2.67;0.50;;;;;;;16.90;47.81;99930.00;6291026;22;20018;-81
2023/03/07 16:57:44;;;;;;;0.77;0.40;;;;;;;16.89;47.98;99930.00;6265615;22;20343;-81
2023/03/07 17:00:16;;;;;;;1.52;0.50;;;;;;;16.89;47.82;99927.41;6292164;22;20015;-80
2023/03/07 17:02:42;;;;;;;1.65;0.50;;;;;;;16.87;47.75;99935.22;6320706;22;19995;-80
2023/03/07 17:05:20;;;;;;;1.58;0.50;;;;;;;16.87;47.99;99935.22;6287768;22;20011;-80
2023/03/07 17:07:46;;;;;;;1.15;0.47;;;;;;;16.87;47.84;99940.44;6298715;22;19999;-82
2023/03/07 17:10:12;;;;;;;1.40;0.47;;;;;;;16.88;47.99;99944.75;6300472;22;20014;-83
2023/03/07 17:12:40;;;;;;;0.50;0.40;;;;;;;16.88;48.02;99946.50;6276704;22;20023;-83
2023/03/07 17:15:35;;;;;;;;;;;;;;;;;;;;;
2023/03/07 17:18:21;;;;;;;;;;;;;;;;;;;;;
2023/03/07 17:20:47;;;;;;;0.95;0.50;;;;;;;16.88;48.22;99956.91;6327790;22;19999;-82
2023/03/07 17:23:43;;;;;;;1.33;0.40;;;;;;;16.88;47.86;99965.53;6280349;22;20011;-82
2023/03/07 17:32:05;;;;;;;0.80;0.45;;;;;;;16.87;47.78;99966.41;6278061;22;20030;-82
2023/03/07 17:34:33;;;;;;;0.93;0.40;;;;;;;16.88;47.80;99969.88;6324901;22;20431;-81
2023/03/07 17:36:59;;;;;;;1.65;0.60;;;;;;;16.88;47.90;99967.28;6297520;22;20002;-83
2023/03/07 17:39:27;;;;;;;0.95;0.50;;;;;;;16.86;47.70;99967.31;6295244;22;20014;-82
2023/03/07 17:41:53;;;;;;;2.85;0.50;;;;;;;16.86;47.76;99981.16;6296805;22;20007;-82
2023/03/07 17:44:18;;;;;;;1.60;0.60;;;;;;;16.87;47.92;99979.41;6291438;22;20027;-82
2023/03/07 17:46:44;;;;;;;1.33;0.50;;;;;;;16.85;47.63;99979.47;6294477;22;20014;-82
2023/03/07 17:49:09;;;;;;;2.03;0.45;;;;;;;16.87;47.76;99982.00;6293341;22;20003;-81
2023/03/07 17:51:35;;;;;;;0.93;0.50;;;;;;;16.85;47.81;99981.19;6291117;22;20003;-81
2023/03/07 17:54:00;;;;;;;1.08;0.57;;;;;;;16.86;47.75;99986.34;6290412;22;20003;-82
2023/03/07 17:56:26;;;;;;;1.17;0.50;;;;;;;16.86;47.68;99990.69;6268286;22;20022;-82
2023/03/07 17:58:51;;;;;;;1.02;0.40;;;;;;;16.85;47.85;99987.25;6296874;22;20000;-82
2023/03/07 18:01:18;;;;;;;1.73;0.50;;;;;;;16.86;47.77;100006.28;6294314;22;20022;-83
2023/03/07 18:03:43;;;;;;;1.15;0.50;;;;;;;16.86;47.93;100008.91;6295930;22;20030;-83
2023/03/07 18:06:09;;;;;;;1.40;0.50;;;;;;;16.85;47.58;100008.03;6295154;22;20003;-82
2023/03/07 18:08:36;;;;;;;0.73;0.50;;;;;;;16.86;47.65;100020.13;6268362;22;20011;-82
2023/03/07 18:11:10;;;;;;;2.00;0.60;;;;;;;16.85;47.57;100009.75;6294469;22;20009;-81
2023/03/07 18:13:36;;;;;;;1.65;0.63;;;;;;;16.85;47.70;100015.84;6293970;22;20059;-82
2023/03/07 18:16:02;;;;;;;1.10;0.52;;;;;;;16.85;47.74;100021.03;6322078;22;20007;-82
2023/03/07 18:18:36;;;;;;;0.52;0.35;;;;;;;16.85;47.78;100015.84;6295220;22;20007;-82
2023/03/07 18:21:09;;;;;;;0.75;0.40;;;;;;;16.85;47.86;100015.84;6294280;22;20003;-81
2023/03/07 18:23:35;;;;;;;1.13;0.50;;;;;;;16.86;47.64;100011.50;6290550;22;19996;-81
2023/03/07 18:26:07;;;;;;;0.95;0.38;;;;;;;16.86;47.25;100008.91;6299411;22;20018;-82
2023/03/07 18:28:34;;;;;;;0.57;0.50;;;;;;;16.85;47.48;100010.66;6323052;22;20090;-80
2023/03/07 18:31:02;;;;;;;0.52;0.40;;;;;;;16.85;47.78;100012.34;6286894;22;20038;-80
2023/03/07 18:33:28;;;;;;;0.93;0.50;;;;;;;16.85;47.61;100022.75;6287446;22;20103;-80
2023/03/07 18:35:55;;;;;;;0.70;0.40;;;;;;;16.85;47.73;100015.84;6290686;22;20003;-80
2023/03/07 18:38:23;;;;;;;1.80;0.52;;;;;;;16.86;47.78;100017.53;6295749;22;20085;-81
2023/03/07 18:40:49;;;;;;;1.05;0.40;;;;;;;16.86;47.64;100016.69;6295935;22;20007;-79
2023/03/07 18:43:15;;;;;;;1.08;0.60;;;;;;;16.85;47.64;100018.44;6296036;22;19999;-80
2023/03/07 18:45:44;;;;;;;2.30;1.98;;;;;;;16.86;47.80;100024.47;6299205;22;20022;-81
2023/03/07 18:48:10;;;;;;;3.55;2.92;;;;;;;16.87;47.64;100028.78;6264720;22;20089;-80
2023/03/07 18:50:36;;;;;;;6.32;4.10;;;;;;;16.87;47.57;100026.19;6286053;22;20015;-80
2023/03/07 18:53:03;;;;;;;9.07;4.88;;;;;;;16.86;47.95;100033.13;6313434;22;20289;-79
2023/03/07 18:55:28;;;;;;;8.68;5.40;;;;;;;16.86;47.97;100035.72;6284281;22;20007;-79
2023/03/07 18:57:54;;;;;;;11.43;6.55;;;;;;;16.86;48.15;100033.13;6257252;22;20007;-78
2023/03/07 19:00:21;;;;;;;12.73;6.93;;;;;;;16.86;48.23;100033.13;6257416;22;20039;-79
2023/03/07 19:02:46;;;;;;;12.30;7.13;;;;;;;16.86;48.29;100040.91;6316012;22;20006;-79
2023/03/07 19:05:12;;;;;;;10.95;6.90;;;;;;;16.86;48.34;100035.72;6270197;22;20058;-79
2023/03/07 19:07:37;;;;;;;11.02;6.65;;;;;;;16.88;48.39;100046.09;6241571;22;20444;-80
2023/03/07 19:10:04;;;;;;;12.50;7.60;;;;;;;16.86;48.35;100045.28;6244942;22;20077;-79
2023/03/07 19:12:29;;;;;;;10.35;6.88;;;;;;;16.86;48.43;100040.06;6298436;22;20010;-80
2023/03/07 19:14:54;;;;;;;12.25;6.75;;;;;;;16.85;48.46;100049.63;6299565;22;20098;-80
2023/03/07 19:17:20;;;;;;;12.43;7.30;;;;;;;16.86;48.67;100047.88;6288896;22;20042;-80
2023/03/07 19:19:47;;;;;;;10.52;6.43;;;;;;;16.85;48.38;100040.94;6286507;22;20380;-79
2023/03/07 19:22:13;;;;;;;13.75;6.78;;;;;;;16.83;48.47;100040.13;6285088;22;20007;-79
2023/03/07 19:24:38;;;;;;;12.90;6.90;;;;;;;16.83;48.78;100042.72;6285305;22;20023;-78
2023/03/07 19:27:03;;;;;;;12.65;7.15;;;;;;;16.82;48.73;100047.06;6312094;22;20100;-79
2023/03/07 19:29:29;;;;;;;12.05;6.50;;;;;;;16.83;48.65;100050.50;6234194;22;20431;-79
2023/03/07 19:31:54;;;;;;;10.48;6.05;;;;;;;16.81;48.37;100053.16;6284812;22;20022;-79
2023/03/07 19:34:20;;;;;;;10.98;6.43;;;;;;;16.81;48.52;100057.47;6258788;22;20415;-79
2023/03/07 19:36:45;;;;;;;11.77;6.40;;;;;;;16.80;48.78;100059.22;6232436;22;20513;-79
2023/03/07 19:39:19;;;;;;;9.65;6.15;;;;;;;16.80;48.70;100063.56;6314182;22;20006;-80
2023/03/07 19:41:46;;;;;;;10.48;5.85;;;;;;;16.80;48.58;100060.97;6285404;22;20068;-79
2023/03/07 19:44:13;;;;;;;9.50;5.40;;;;;;;16.80;48.55;100072.22;6291960;22;20321;-81
2023/03/07 19:46:41;;;;;;;11.10;5.47;;;;;;;16.79;48.63;100073.09;6287545;22;20007;-79
2023/03/07 19:49:07;;;;;;;8.63;5.40;;;;;;;16.78;48.54;100079.16;6309578;22;20003;-78
2023/03/07 19:51:33;;;;;;;9.68;5.40;;;;;;;16.78;48.53;100067.91;6260028;22;20023;-80
2023/03/07 19:53:58;;;;;;;9.40;5.00;;;;;;;16.78;48.64;100073.94;6286173;22;20014;-80
2023/03/07 19:56:29;;;;;;;9.70;5.00;;;;;;;16.78;48.67;100073.09;6282847;22;20379;-80
2023/03/07 19:58:56;;;;;;;8.80;5.13;;;;;;;16.77;48.75;100074.00;6282889;22;20011;-80
2023/03/07 20:01:22;;;;;;;10.63;5.18;;;;;;;16.77;48.64;100064.47;6286196;22;20003;-80
2023/03/07 20:03:48;;;;;;;9.10;4.90;;;;;;;16.76;48.72;100067.06;6286302;22;20000;-80
2023/03/07 20:06:16;;;;;;;9.05;4.43;;;;;;;16.76;48.88;100061.88;6283549;22;20013;-79
2023/03/07 20:08:42;;;;;;;8.18;4.15;;;;;;;16.76;48.71;100056.69;6285842;22;20010;-81
2023/03/07 20:11:15;;;;;;;9.15;4.00;;;;;;;16.75;48.74;100063.63;6264093;22;20003;-81
2023/03/07 20:13:47;;;;;;;7.70;4.15;;;;;;;16.73;48.57;100068.00;6291809;22;20011;-80
2023/03/07 20:16:16;;;;;;;6.63;3.90;;;;;;;16.74;48.90;100064.50;6293672;22;20003;-80
2023/03/07 20:18:41;;;;;;;8.32;3.70;;;;;;;16.74;48.67;100058.44;6295264;22;19999;-79
2023/03/07 20:21:09;;;;;;;6.97;3.78;;;;;;;16.74;48.62;100063.66;6291478;22;20054;-80
2023/03/07 20:23:35;;;;;;;6.15;3.97;;;;;;;16.73;48.59;100067.16;6287585;22;20309;-80
2023/03/07 20:26:05;;;;;;;6.75;3.65;;;;;;;16.71;48.76;100067.16;6264394;22;20007;-79
2023/03/07 20:28:30;;;;;;;5.72;3.10;;;;;;;16.72;48.66;100065.41;6292922;22;20011;-79
2023/03/07 20:30:56;;;;;;;8.38;3.53;;;;;;;16.71;48.63;100059.38;6295761;22;19999;-79
2023/03/07 20:33:21;;;;;;;8.45;3.60;;;;;;;16.71;48.82;100066.31;6268505;22;20031;-79
2023/03/07 20:35:47;;;;;;;8.93;3.55;;;;;;;16.70;48.53;100070.66;6265567;22;20038;-79
2023/03/07 20:38:12;;;;;;;7.70;3.13;;;;;;;16.71;48.54;100069.75;6236459;22;20086;-79
2023/03/07 20:40:37;;;;;;;6.75;3.10;;;;;;;16.70;48.61;100074.97;6235555;22;20065;-80
2023/03/07 20:43:04;;;;;;;5.65;2.80;;;;;;;16.70;48.59;100068.06;6259416;22;20015;-79
2023/03/07 20:45:30;;;;;;;5.90;2.92;;;;;;;16.70;48.57;100069.78;6260966;22;20035;-80
2023/03/07 20:47:55;;;;;;;5.85;2.90;;;;;;;16.69;48.39;100071.53;6259500;22;20011;-79
2023/03/07 20:50:20;;;;;;;5.35;2.80;;;;;;;16.69;48.56;100076.72;6259436;22;20436;-79
2023/03/07 20:52:46;;;;;;;6.38;2.95;;;;;;;16.67;48.40;100074.16;6285494;22;20022;-80
2023/03/07 20:55:32;;;;;;;4.72;2.75;;;;;;;16.68;48.36;100069.81;6276005;22;19991;-83
2023/03/07 20:57:57;;;;;;;5.03;2.60;;;;;;;16.68;48.52;100072.44;6291808;22;20014;-82
2023/03/07 21:00:23;;;;;;;5.03;2.80;;;;;;;16.67;48.43;100073.28;6313589;22;19999;-79
2023/03/07 21:02:48;;;;;;;5.60;2.42;;;;;;;16.66;48.54;100069.84;6259722;22;20050;-78
2023/03/07 21:05:13;;;;;;;3.45;2.08;;;;;;;16.68;48.42;100077.63;6260025;22;20070;-79
2023/03/07 21:07:39;;;;;;;5.18;2.53;;;;;;;16.67;48.53;100073.28;6285093;22;20062;-80
2023/03/07 21:10:04;;;;;;;4.05;2.35;;;;;;;16.66;48.56;100069.84;6285917;22;20455;-80
2023/03/07 21:12:30;;;;;;;4.65;2.20;;;;;;;16.65;48.42;100073.31;6235531;22;20065;-80
2023/03/07 21:14:55;;;;;;;5.30;2.15;;;;;;;16.66;48.33;100076.78;6260542;22;20014;-80
2023/03/07 21:17:20;;;;;;;6.25;2.30;;;;;;;16.66;48.43;100080.25;6261262;22;20015;-80
2023/03/07 21:19:46;;;;;;;3.80;2.25;;;;;;;16.65;48.26;100072.47;6259961;22;20011;-80
2023/03/07 21:22:11;;;;;;;5.53;2.30;;;;;;;16.64;48.53;100073.38;6290124;22;20420;-80
2023/03/07 21:24:37;;;;;;;5.22;2.28;;;;;;;16.64;48.40;100076.81;6288246;22;20015;-80
2023/03/07 21:27:02;;;;;;;4.40;2.20;;;;;;;16.63;48.19;100067.28;6286386;22;20003;-80
2023/03/07 21:29:27;;;;;;;4.20;2.13;;;;;;;16.63;48.22;100072.47;6265983;22;20037;-81
2023/03/07 21:31:53;;;;;;;4.97;2.00;;;;;;;16.63;48.27;100071.63;6328835;22;20020;-80
2023/03/07 21:34:19;;;;;;;4.63;2.03;;;;;;;16.63;48.41;100079.44;6251209;22;20066;-80
2023/03/07 21:36:46;;;;;;;4.72;1.95;;;;;;;16.63;48.18;100071.63;6302517;22;20007;-80
2023/03/07 21:39:11;;;;;;;4.75;2.00;;;;;;;16.63;48.09;100075.06;6296544;22;20007;-80
2023/03/07 21:41:37;;;;;;;3.90;1.90;;;;;;;16.63;48.13;100071.63;6292860;22;20006;-80
2023/03/07 21:44:03;;;;;;;4.72;1.88;;;;;;;16.62;48.31;100077.72;6291094;22;20050;-79
2023/03/07 21:46:28;;;;;;;5.25;2.00;;;;;;;16.61;48.29;100076.88;6267524;22;20014;-80
2023/03/07 21:48:57;;;;;;;4.47;2.00;;;;;;;16.62;48.18;100081.16;6288806;22;20055;-80
2023/03/07 21:51:22;;;;;;;3.58;1.90;;;;;;;16.62;48.03;100083.78;6288588;22;20014;-80
2023/03/07 21:53:48;;;;;;;4.22;1.92;;;;;;;16.62;48.13;100095.91;6287902;22;20007;-80
2023/03/07 21:56:17;;;;;;;3.70;1.95;;;;;;;16.61;48.04;100100.25;6236199;22;20436;-80
2023/03/07 21:58:46;;;;;;;2.83;1.60;;;;;;;16.61;48.07;100110.66;6286866;22;20037;-80
2023/03/07 22:01:24;;;;;;;4.07;1.75;;;;;;;16.61;48.03;100118.44;6312993;22;20034;-79
2023/03/07 22:03:52;;;;;;;4.93;1.70;;;;;;;16.61;48.10;100121.03;6312307;22;20022;-80
2023/03/07 22:06:17;;;;;;;2.60;1.50;;;;;;;16.61;48.09;100104.56;6285580;22;20003;-79
2023/03/07 22:08:43;;;;;;;3.65;1.67;;;;;;;16.62;48.04;100114.09;6259043;22;20347;-79
2023/03/07 22:11:11;;;;;;;3.22;1.48;;;;;;;16.60;47.93;100108.91;6260260;22;20451;-81
2023/03/07 22:13:38;;;;;;;4.43;1.70;;;;;;;16.61;48.02;100108.06;6313064;22;20031;-79
2023/03/07 22:16:06;;;;;;;3.53;1.88;;;;;;;16.61;48.19;100115.84;6283900;22;20011;-79
2023/03/07 22:18:32;;;;;;;4.35;2.00;;;;;;;16.60;48.01;100108.91;6284173;22;20090;-79
2023/03/07 22:20:58;;;;;;;6.63;2.20;;;;;;;16.61;47.95;100109.75;6283715;22;20004;-79
2023/03/07 22:23:27;;;;;;;4.88;2.05;;;;;;;16.60;47.90;100102.88;6258999;22;20010;-80
2023/03/07 22:25:53;;;;;;;4.47;2.22;;;;;;;16.59;47.93;100106.34;6289973;22;20061;-80
2023/03/07 22:28:18;;;;;;;4.20;2.00;;;;;;;16.59;48.10;100107.22;6293734;22;20003;-80
2023/03/07 22:30:45;;;;;;;4.68;2.28;;;;;;;16.58;48.06;100105.47;6259168;22;20107;-80
2023/03/07 22:33:11;;;;;;;5.80;2.30;;;;;;;16.58;47.99;100105.47;6283958;22;20023;-80
2023/03/07 22:35:36;;;;;;;5.15;2.30;;;;;;;16.58;47.59;100112.44;6284064;22;20317;-80
2023/03/07 22:38:01;;;;;;;7.00;2.85;;;;;;;16.56;47.82;100109.84;6283548;22;20011;-80
2023/03/07 22:40:27;;;;;;;6.95;2.75;;;;;;;16.56;47.72;100107.25;6233611;22;20015;-79
2023/03/07 22:42:52;;;;;;;7.53;2.35;;;;;;;16.56;47.86;100103.81;6288120;22;20016;-80